FIN331 EFHK-EFOU
Flight info
| Callsign | FIN331 |
|---|---|
| Flight time | N/A |
| Altitude | 34000 |
| Route | TEVRU Y75 SUVIB |
| Aircraft | A319/M-SDE3FGHIRWY/LB1 |
Departure
| Time | 2026-05-07 18:32 |
|---|---|
| Airport | Helsinki Vantaa Airport (EFHK) |
Arrival
| Time | N/A |
|---|---|
| Airport | Oulu Airport (EFOU) |
| Time | Latitude | Longitude | Altitude | Speed | Heading |
|---|---|---|---|---|---|
| 2026-05-07 17:43 | 60.31944 | 24.96921 | 161 ft | 0 kts | 242° |
| 2026-05-07 18:19 | 60.31949 | 24.96940 | 161 ft | 4 kts | 246° |
| 2026-05-07 18:19 | 60.31957 | 24.96991 | 161 ft | 4 kts | 264° |
| 2026-05-07 18:19 | 60.31956 | 24.97043 | 161 ft | 4 kts | 294° |
| 2026-05-07 18:19 | 60.31944 | 24.97074 | 161 ft | 0 kts | 332° |
| 2026-05-07 18:24 | 60.31952 | 24.97065 | 161 ft | 3 kts | 332° |
| 2026-05-07 18:24 | 60.31988 | 24.97027 | 161 ft | 9 kts | 332° |
| 2026-05-07 18:24 | 60.32027 | 24.96986 | 161 ft | 10 kts | 332° |
| 2026-05-07 18:25 | 60.32090 | 24.96917 | 161 ft | 11 kts | 330° |
| 2026-05-07 18:25 | 60.32180 | 24.96812 | 161 ft | 12 kts | 329° |
| 2026-05-07 18:25 | 60.32254 | 24.96725 | 161 ft | 13 kts | 329° |
| 2026-05-07 18:25 | 60.32326 | 24.96641 | 161 ft | 7 kts | 330° |
| 2026-05-07 18:26 | 60.32337 | 24.96628 | 162 ft | 0 kts | 330° |
| 2026-05-07 18:26 | 60.32342 | 24.96622 | 162 ft | 2 kts | 330° |
| 2026-05-07 18:26 | 60.32356 | 24.96606 | 162 ft | 4 kts | 330° |
| 2026-05-07 18:26 | 60.32395 | 24.96561 | 162 ft | 9 kts | 330° |
| 2026-05-07 18:27 | 60.32475 | 24.96467 | 161 ft | 17 kts | 329° |
| 2026-05-07 18:27 | 60.32594 | 24.96324 | 161 ft | 23 kts | 329° |
| 2026-05-07 18:27 | 60.32750 | 24.96142 | 161 ft | 29 kts | 330° |
| 2026-05-07 18:27 | 60.32927 | 24.95936 | 161 ft | 29 kts | 330° |
| 2026-05-07 18:28 | 60.33087 | 24.95739 | 161 ft | 21 kts | 319° |
| 2026-05-07 18:28 | 60.33187 | 24.95545 | 161 ft | 20 kts | 311° |
| 2026-05-07 18:28 | 60.33171 | 24.95305 | 161 ft | 20 kts | 227° |
| 2026-05-07 18:28 | 60.33106 | 24.95069 | 161 ft | 20 kts | 270° |
| 2026-05-07 18:29 | 60.33113 | 24.94842 | 162 ft | 11 kts | 272° |
| 2026-05-07 18:29 | 60.33117 | 24.94672 | 163 ft | 13 kts | 272° |
| 2026-05-07 18:29 | 60.33121 | 24.94508 | 170 ft | 10 kts | 273° |
| 2026-05-07 18:29 | 60.33099 | 24.94352 | 174 ft | 12 kts | 229° |
| 2026-05-07 18:30 | 60.33080 | 24.94311 | 175 ft | 0 kts | 227° |
| 2026-05-07 18:31 | 60.33079 | 24.94310 | 175 ft | 1 kts | 227° |
| 2026-05-07 18:31 | 60.32963 | 24.94054 | 178 ft | 64 kts | 227° |
| 2026-05-07 18:31 | 60.32484 | 24.93006 | 163 ft | 135 kts | 227° |
| 2026-05-07 18:31 | 60.31803 | 24.91460 | 644 ft | 149 kts | 228° |
| 2026-05-07 18:32 | 60.31117 | 24.89900 | 1424 ft | 149 kts | 229° |
| 2026-05-07 18:32 | 60.30451 | 24.88157 | 1929 ft | 167 kts | 246° |
| 2026-05-07 18:32 | 60.30184 | 24.85750 | 2359 ft | 187 kts | 274° |
| 2026-05-07 18:32 | 60.30547 | 24.83132 | 2772 ft | 207 kts | 296° |
| 2026-05-07 18:33 | 60.31177 | 24.80302 | 3278 ft | 233 kts | 296° |
| 2026-05-07 18:33 | 60.31875 | 24.77208 | 4078 ft | 248 kts | 298° |
| 2026-05-07 18:33 | 60.32685 | 24.74086 | 5150 ft | 253 kts | 300° |
| 2026-05-07 18:33 | 60.33553 | 24.70947 | 6234 ft | 258 kts | 301° |
| 2026-05-07 18:34 | 60.34465 | 24.67789 | 7276 ft | 263 kts | 305° |
| 2026-05-07 18:34 | 60.35771 | 24.65267 | 8277 ft | 267 kts | 329° |
| 2026-05-07 18:34 | 60.37548 | 24.64100 | 9319 ft | 275 kts | 354° |
| 2026-05-07 18:34 | 60.39478 | 24.64522 | 10295 ft | 284 kts | 9° |
| 2026-05-07 18:35 | 60.41501 | 24.65354 | 10733 ft | 309 kts | 8° |
| 2026-05-07 18:35 | 60.43648 | 24.66255 | 11440 ft | 320 kts | 8° |
| 2026-05-07 18:35 | 60.45858 | 24.67188 | 12311 ft | 326 kts | 7° |
| 2026-05-07 18:35 | 60.48101 | 24.68132 | 13195 ft | 332 kts | 6° |
| 2026-05-07 18:36 | 60.50383 | 24.69089 | 14038 ft | 337 kts | 5° |
| 2026-05-07 18:36 | 60.52699 | 24.70058 | 14815 ft | 343 kts | 5° |
| 2026-05-07 18:36 | 60.55030 | 24.71032 | 15581 ft | 348 kts | 5° |
| 2026-05-07 18:36 | 60.57434 | 24.72034 | 16354 ft | 353 kts | 4° |
| 2026-05-07 18:37 | 60.59857 | 24.73046 | 17121 ft | 358 kts | 4° |
| 2026-05-07 18:37 | 60.62321 | 24.74076 | 17888 ft | 362 kts | 4° |
| 2026-05-07 18:37 | 60.64783 | 24.75107 | 18597 ft | 367 kts | 4° |
| 2026-05-07 18:37 | 60.67308 | 24.76173 | 19218 ft | 373 kts | 3° |
| 2026-05-07 18:38 | 60.69868 | 24.77256 | 19853 ft | 378 kts | 3° |
| 2026-05-07 18:38 | 60.72462 | 24.78357 | 20488 ft | 383 kts | 3° |
| 2026-05-07 18:38 | 60.75091 | 24.79473 | 21124 ft | 388 kts | 3° |
| 2026-05-07 18:38 | 60.77729 | 24.80587 | 21748 ft | 393 kts | 2° |
| 2026-05-07 18:39 | 60.80433 | 24.81726 | 22367 ft | 398 kts | 2° |
| 2026-05-07 18:39 | 60.83167 | 24.82699 | 23031 ft | 397 kts | 356° |
| 2026-05-07 18:39 | 60.85947 | 24.83358 | 23593 ft | 404 kts | 356° |
| 2026-05-07 18:39 | 60.88728 | 24.84013 | 24099 ft | 408 kts | 356° |
| 2026-05-07 18:40 | 60.91578 | 24.84685 | 24635 ft | 412 kts | 356° |
| 2026-05-07 18:40 | 60.94434 | 24.85360 | 25175 ft | 415 kts | 356° |
| 2026-05-07 18:40 | 60.97287 | 24.86034 | 25723 ft | 417 kts | 356° |
| 2026-05-07 18:40 | 61.00182 | 24.86724 | 26318 ft | 417 kts | 356° |